createdAt,value
2023-09-20T00:02:24.618Z,100733.09
2023-09-20T00:05:01.491Z,100727.56
2023-09-20T00:07:34.594Z,100727.88
2023-09-20T00:10:13.529Z,100727.48
2023-09-20T00:12:46.535Z,100726.45
2023-09-20T00:15:19.372Z,100724.25
2023-09-20T00:17:53.539Z,100726.55
2023-09-20T00:20:26.556Z,100728.05
2023-09-20T00:22:59.721Z,100730.38
2023-09-20T00:25:52.784Z,100728.51
2023-09-20T00:28:25.337Z,100729.48
2023-09-20T00:30:58.514Z,100732.20
2023-09-20T00:33:31.180Z,100735.11
2023-09-20T00:36:03.754Z,100735.14
2023-09-20T00:38:36.788Z,100733.79
2023-09-20T00:41:09.809Z,100734.08
2023-09-20T00:43:42.399Z,100735.14
2023-09-20T00:46:34.893Z,100739.16
2023-09-20T00:49:08.086Z,100740.55
2023-09-20T00:51:41.631Z,100745.80
2023-09-20T00:54:18.134Z,100742.77
2023-09-20T00:56:50.947Z,100738.35
2023-09-20T00:59:24.290Z,100735.26
2023-09-20T01:01:58.142Z,100740.28
2023-09-20T01:04:32.009Z,100734.66
2023-09-20T01:07:04.396Z,100738.14
2023-09-20T01:09:58.141Z,100739.92
2023-09-20T01:12:31.062Z,100741.35
2023-09-20T01:15:03.707Z,100737.80
2023-09-20T01:17:47.835Z,100740.20
2023-09-20T01:20:21.814Z,100742.20
2023-09-20T01:22:55.752Z,100740.36
2023-09-20T01:25:30.991Z,100746.48
2023-09-20T01:28:06.162Z,100746.95
2023-09-20T01:30:40.480Z,100746.00
2023-09-20T01:33:14.606Z,100745.55
2023-09-20T01:36:07.860Z,100743.40
2023-09-20T01:38:41.795Z,100745.33
2023-09-20T01:41:13.172Z,100742.14
2023-09-20T01:44:09.263Z,100741.86
2023-09-20T01:46:43.070Z,100744.58
2023-09-20T01:49:15.036Z,100745.15
2023-09-20T01:51:47.585Z,100745.54
2023-09-20T01:54:20.318Z,100740.86
2023-09-20T01:56:53.275Z,100742.56
2023-09-20T01:59:25.776Z,100742.04
2023-09-20T02:01:58.343Z,100743.91
2023-09-20T02:04:33.155Z,100748.88
2023-09-20T02:07:03.930Z,100753.54
2023-09-20T02:09:37.100Z,100754.34
2023-09-20T02:12:09.919Z,100749.89
2023-09-20T02:14:42.944Z,100749.18
2023-09-20T02:17:17.217Z,100746.33
2023-09-20T02:19:51.418Z,100743.34
2023-09-20T02:22:23.872Z,100747.68
2023-09-20T02:24:56.571Z,100749.67
2023-09-20T02:27:32.669Z,100751.05
2023-09-20T02:30:06.328Z,100749.54
2023-09-20T02:32:39.781Z,100746.89
2023-09-20T02:35:12.821Z,100751.46
2023-09-20T02:37:47.435Z,100750.16
2023-09-20T02:40:21.626Z,100752.30
2023-09-20T02:42:55.777Z,100751.63
2023-09-20T02:45:30.994Z,100748.99
2023-09-20T02:48:06.405Z,100748.77
2023-09-20T02:50:43.049Z,100751.64
2023-09-20T02:53:16.845Z,100749.45
2023-09-20T02:55:49.915Z,100750.11
2023-09-20T02:58:22.890Z,100750.73
2023-09-20T03:00:55.264Z,100750.14
2023-09-20T03:03:29.602Z,100752.17
2023-09-20T03:06:11.486Z,100752.70
2023-09-20T03:08:46.426Z,100751.11
2023-09-20T03:11:29.327Z,100752.77
2023-09-20T03:14:04.881Z,100755.43
2023-09-20T03:16:38.051Z,100757.59
2023-09-20T03:19:13.069Z,100758.98
2023-09-20T03:21:48.655Z,100759.63
2023-09-20T03:24:21.277Z,100764.07
2023-09-20T03:26:53.730Z,100765.77
2023-09-20T03:29:27.789Z,100765.45
2023-09-20T03:32:01.999Z,100761.08
2023-09-20T03:34:35.761Z,100760.77
2023-09-20T03:37:11.071Z,100757.53
2023-09-20T03:39:44.478Z,100755.55
2023-09-20T03:42:16.851Z,100761.41
2023-09-20T03:44:49.739Z,100761.13
2023-09-20T03:47:22.249Z,100758.70
2023-09-20T03:49:56.042Z,100758.27
2023-09-20T03:52:28.336Z,100756.04
2023-09-20T03:55:00.835Z,100756.93
2023-09-20T03:57:33.464Z,100760.32
2023-09-20T04:00:11.394Z,100760.86
2023-09-20T04:02:49.770Z,100759.13
2023-09-20T04:05:38.934Z,100760.39
2023-09-20T04:08:18.456Z,100761.71
2023-09-20T04:10:52.208Z,100765.23
2023-09-20T04:13:24.688Z,100765.72
2023-09-20T04:15:57.224Z,100768.39
2023-09-20T04:18:29.937Z,100769.81
2023-09-20T04:21:03.847Z,100775.56
2023-09-20T04:23:36.890Z,100779.88
2023-09-20T04:26:09.527Z,100780.16
2023-09-20T04:28:42.309Z,100779.98
2023-09-20T04:31:15.452Z,100781.48
2023-09-20T04:33:48.725Z,100781.09
2023-09-20T04:36:22.251Z,100782.66
2023-09-20T04:38:54.992Z,100786.00
2023-09-20T04:41:28.448Z,100791.58
2023-09-20T04:44:01.015Z,100793.71
2023-09-20T04:46:37.264Z,100797.47
2023-09-20T04:49:11.487Z,100800.66
2023-09-20T04:52:04.511Z,100801.04
2023-09-20T04:54:36.964Z,100797.73
2023-09-20T04:57:09.667Z,100803.64
2023-09-20T04:59:42.301Z,100804.63
2023-09-20T05:02:15.877Z,100804.99
2023-09-20T05:04:48.895Z,100807.65
2023-09-20T05:07:45.090Z,100809.09
2023-09-20T05:10:18.149Z,100809.23
2023-09-20T05:12:50.879Z,100813.18
2023-09-20T05:15:24.466Z,100815.50
2023-09-20T05:17:57.773Z,100809.30
2023-09-20T05:20:32.430Z,100805.22
2023-09-20T05:23:06.032Z,100807.53
2023-09-20T05:25:39.518Z,100808.73
2023-09-20T05:28:11.997Z,100814.59
2023-09-20T05:30:48.082Z,100816.45
2023-09-20T05:33:22.383Z,100819.60
2023-09-20T05:35:54.858Z,100822.53
2023-09-20T05:38:27.775Z,100823.28
2023-09-20T05:41:00.136Z,100821.61
2023-09-20T05:43:33.346Z,100824.35
2023-09-20T05:46:10.167Z,100832.51
2023-09-20T05:48:47.780Z,100832.73
2023-09-20T05:51:22.116Z,100835.02
2023-09-20T05:53:54.433Z,100837.08
2023-09-20T05:56:27.577Z,100839.19
2023-09-20T05:59:01.770Z,100841.29
2023-09-20T06:01:34.563Z,100842.38
2023-09-20T06:04:08.904Z,100846.16
2023-09-20T06:06:42.041Z,100848.92
2023-09-20T06:09:15.584Z,100854.07
2023-09-20T06:11:47.977Z,100854.21
2023-09-20T06:14:20.627Z,100859.48
2023-09-20T06:16:54.632Z,100859.86
2023-09-20T06:19:32.138Z,100860.20
2023-09-20T06:22:04.826Z,100855.79
2023-09-20T06:24:37.254Z,100858.50
2023-09-20T06:27:10.454Z,100858.63
2023-09-20T06:29:43.692Z,100857.42
2023-09-20T06:32:18.072Z,100862.36
2023-09-20T06:34:58.998Z,100859.52
2023-09-20T06:37:32.052Z,100858.90
2023-09-20T06:40:05.309Z,100858.89
2023-09-20T06:42:38.527Z,100857.25
2023-09-20T06:45:14.136Z,100861.38
2023-09-20T06:47:47.046Z,100860.02
2023-09-20T06:50:19.814Z,100860.52
2023-09-20T06:52:54.923Z,100853.54
2023-09-20T06:55:27.470Z,100850.63
2023-09-20T06:58:17.322Z,100849.25
2023-09-20T07:00:52.929Z,100845.80
2023-09-20T07:03:25.938Z,100849.73
2023-09-20T07:05:58.513Z,100849.20
2023-09-20T07:08:35.977Z,100851.34
2023-09-20T07:11:08.745Z,100851.73
2023-09-20T07:14:06.861Z,100851.98
2023-09-20T07:16:40.621Z,100852.77
2023-09-20T07:19:18.600Z,100855.89
2023-09-20T07:21:51.481Z,100853.38
2023-09-20T07:24:25.688Z,100854.40
2023-09-20T07:26:59.821Z,100855.27
2023-09-20T07:29:32.359Z,100857.16
2023-09-20T07:32:05.807Z,100852.70
2023-09-20T07:34:38.647Z,100863.50
2023-09-20T07:37:14.886Z,100867.58
2023-09-20T07:40:08.323Z,100866.02
2023-09-20T07:42:41.821Z,100863.52
2023-09-20T07:45:14.624Z,100864.42
2023-09-20T07:47:46.975Z,100864.17
2023-09-20T07:50:19.510Z,100863.02
2023-09-20T07:52:52.261Z,100866.02
2023-09-20T07:55:24.686Z,100866.09
2023-09-20T07:57:59.363Z,100863.69
2023-09-20T08:00:32.569Z,100864.98
2023-09-20T08:03:07.145Z,100864.67
2023-09-20T08:05:40.178Z,100867.08
2023-09-20T08:08:13.022Z,100867.80
2023-09-20T08:10:55.232Z,100871.52
2023-09-20T08:13:53.524Z,100865.30
2023-09-20T08:16:41.765Z,100866.20
2023-09-20T08:19:23.757Z,100864.94
2023-09-20T08:21:56.693Z,100864.98
2023-09-20T08:24:46.764Z,100866.41
2023-09-20T08:27:36.757Z,100866.77
2023-09-20T08:30:28.384Z,100865.83
2023-09-20T08:33:18.508Z,100863.98
2023-09-20T08:36:08.640Z,100861.45
2023-09-20T08:38:59.311Z,100858.59
2023-09-20T08:41:49.441Z,100859.71
2023-09-20T08:44:40.926Z,100857.01
2023-09-20T08:47:31.141Z,100859.98
2023-09-20T08:50:21.261Z,100857.41
2023-09-20T08:53:12.005Z,100855.88
2023-09-20T08:56:02.533Z,100859.46
2023-09-20T08:58:53.202Z,100860.11
2023-09-20T09:01:26.215Z,100853.58
2023-09-20T09:04:03.252Z,100849.57
2023-09-20T09:06:36.071Z,100847.00
2023-09-20T09:09:10.001Z,100846.85
2023-09-20T09:11:46.695Z,100848.61
2023-09-20T09:14:19.701Z,100850.52
2023-09-20T09:16:52.173Z,100849.36
2023-09-20T09:19:24.574Z,100846.42
2023-09-20T09:22:17.428Z,100844.91
2023-09-20T09:24:51.182Z,100839.38
2023-09-20T09:27:24.281Z,100836.87
2023-09-20T09:29:56.817Z,100828.23
2023-09-20T09:32:34.296Z,100829.88
2023-09-20T09:35:09.554Z,100828.19
2023-09-20T09:37:43.667Z,100830.68
2023-09-20T09:40:16.455Z,100829.15
2023-09-20T09:42:49.462Z,100829.36
2023-09-20T09:45:33.441Z,100828.20
2023-09-20T09:48:08.970Z,100824.98
2023-09-20T09:50:41.927Z,100822.08
2023-09-20T09:53:17.552Z,100825.64
2023-09-20T09:55:53.680Z,100825.82
2023-09-20T09:58:24.688Z,100825.17
2023-09-20T10:00:59.108Z,100817.77
2023-09-20T10:03:52.753Z,100819.19
2023-09-20T10:06:29.415Z,100816.21
2023-09-20T10:09:06.334Z,100818.08
2023-09-20T10:11:39.991Z,100820.78
2023-09-20T10:14:30.923Z,100818.09
2023-09-20T10:17:07.413Z,100815.09
2023-09-20T10:19:41.988Z,100815.48
2023-09-20T10:22:15.725Z,100812.75
2023-09-20T10:24:54.923Z,100810.33
2023-09-20T10:27:31.527Z,100806.26
2023-09-20T10:30:10.553Z,100807.70
2023-09-20T10:32:58.641Z,100806.54
2023-09-20T10:35:32.198Z,100804.93
2023-09-20T10:38:31.857Z,100803.06
2023-09-20T10:41:09.016Z,100799.35
2023-09-20T10:44:03.410Z,100794.29
2023-09-20T10:46:39.278Z,100791.40
2023-09-20T10:49:15.705Z,100793.45
2023-09-20T10:51:54.421Z,100788.84
2023-09-20T10:54:31.275Z,100786.49
2023-09-20T10:57:11.448Z,100779.32
2023-09-20T10:59:47.230Z,100774.67
2023-09-20T11:02:20.268Z,100768.48
2023-09-20T11:04:52.737Z,100765.11
2023-09-20T11:07:27.558Z,100763.24
2023-09-20T11:10:00.014Z,100761.80
2023-09-20T11:12:33.410Z,100761.90
2023-09-20T11:15:07.247Z,100762.56
2023-09-20T11:17:40.328Z,100763.10
2023-09-20T11:20:15.406Z,100760.89
2023-09-20T11:22:50.726Z,100756.82
2023-09-20T11:25:23.715Z,100752.27
2023-09-20T11:27:57.259Z,100748.70
2023-09-20T11:30:30.214Z,100753.97
2023-09-20T11:33:03.657Z,100756.42
2023-09-20T11:35:41.391Z,100757.91
2023-09-20T11:38:16.740Z,100756.96
2023-09-20T11:40:53.167Z,100756.98
2023-09-20T11:43:29.751Z,100743.70
2023-09-20T11:46:06.377Z,100741.05
2023-09-20T11:49:22.256Z,100734.63
2023-09-20T11:51:55.694Z,100722.58
2023-09-20T11:54:30.433Z,100715.67
2023-09-20T11:57:24.459Z,100703.49
2023-09-20T11:59:56.935Z,100694.50
2023-09-20T12:02:30.162Z,100695.77
2023-09-20T12:05:01.086Z,100704.04
2023-09-20T12:07:34.570Z,100698.00
2023-09-20T12:10:27.886Z,100698.05
2023-09-20T12:13:00.877Z,100694.41
2023-09-20T12:15:34.602Z,100686.24
2023-09-20T12:18:09.631Z,100681.32
2023-09-20T12:20:42.248Z,100683.14
2023-09-20T12:23:15.727Z,100685.25
2023-09-20T12:25:48.365Z,100681.14
2023-09-20T12:28:21.077Z,100680.40
2023-09-20T12:30:54.139Z,100669.50
2023-09-20T12:33:27.182Z,100667.02
2023-09-20T12:35:58.263Z,100669.25
2023-09-20T12:38:32.544Z,100664.00
2023-09-20T12:41:04.926Z,100659.02
2023-09-20T12:43:38.967Z,100656.02
2023-09-20T12:46:11.994Z,100652.52
2023-09-20T12:48:46.154Z,100647.27
2023-09-20T12:51:18.745Z,100641.91
2023-09-20T12:53:51.231Z,100640.59
2023-09-20T12:56:24.061Z,100638.59
2023-09-20T12:58:57.762Z,100635.07
2023-09-20T13:01:33.311Z,100634.16
2023-09-20T13:04:06.281Z,100635.66
2023-09-20T13:06:39.811Z,100635.67
2023-09-20T13:09:15.818Z,100632.15
2023-09-20T13:11:48.538Z,100626.36
2023-09-20T13:14:22.683Z,100623.23
2023-09-20T13:16:54.992Z,100629.21
2023-09-20T13:19:27.848Z,100628.23
2023-09-20T13:22:01.622Z,100623.34
2023-09-20T13:24:34.451Z,100621.92
2023-09-20T13:27:07.625Z,100626.73
2023-09-20T13:29:40.124Z,100621.64
2023-09-20T13:32:12.782Z,100622.52
2023-09-20T13:34:45.644Z,100624.52
2023-09-20T13:37:19.366Z,100624.78
2023-09-20T13:39:52.158Z,100626.61
2023-09-20T13:42:25.740Z,100618.89
2023-09-20T13:44:56.625Z,100616.11
2023-09-20T13:47:30.175Z,100608.84
2023-09-20T13:50:05.731Z,100601.16
2023-09-20T13:52:40.180Z,100606.85
2023-09-20T13:55:15.552Z,100605.80
2023-09-20T13:57:50.140Z,100605.64
2023-09-20T14:00:22.933Z,100602.68
2023-09-20T14:02:55.960Z,100602.91
2023-09-20T14:05:28.894Z,100599.17
2023-09-20T14:08:01.843Z,100596.05
2023-09-20T14:10:35.810Z,100597.63
2023-09-20T14:13:09.136Z,100596.39
2023-09-20T14:15:41.805Z,100596.16
2023-09-20T14:18:14.360Z,100594.46
2023-09-20T14:20:49.106Z,100588.68
2023-09-20T14:23:23.347Z,100585.77
2023-09-20T14:25:56.207Z,100584.37
2023-09-20T14:28:30.983Z,100589.21
2023-09-20T14:31:03.821Z,100583.66
2023-09-20T14:33:36.377Z,100583.98
2023-09-20T14:36:12.681Z,100584.53
2023-09-20T14:38:45.327Z,100579.13
2023-09-20T14:41:18.280Z,100581.41
2023-09-20T14:43:50.667Z,100582.30
2023-09-20T14:46:23.383Z,100580.67
2023-09-20T14:48:56.248Z,100572.68
2023-09-20T14:51:28.775Z,100567.17
2023-09-20T14:54:01.748Z,100564.92
2023-09-20T14:56:34.330Z,100566.41
2023-09-20T14:59:06.919Z,100568.98
2023-09-20T15:01:41.186Z,100568.90
2023-09-20T15:04:13.603Z,100569.15
2023-09-20T15:06:46.145Z,100571.98
2023-09-20T15:09:18.444Z,100567.42
2023-09-20T15:11:51.120Z,100564.61
2023-09-20T15:14:23.581Z,100564.00
2023-09-20T15:17:16.471Z,100558.45
2023-09-20T15:19:50.225Z,100556.42
2023-09-20T15:22:25.116Z,100553.66
2023-09-20T15:24:59.256Z,100553.45
2023-09-20T15:27:34.378Z,100552.11
2023-09-20T15:30:08.366Z,100557.16
2023-09-20T15:32:42.849Z,100556.26
2023-09-20T15:35:15.587Z,100551.85
2023-09-20T15:37:49.505Z,100554.69
2023-09-20T15:40:20.776Z,100558.14
2023-09-20T15:42:56.751Z,100557.38
2023-09-20T15:45:30.917Z,100562.34
2023-09-20T15:48:03.317Z,100562.39
2023-09-20T15:50:38.494Z,100558.13
2023-09-20T15:53:15.563Z,100558.00
2023-09-20T15:55:47.811Z,100559.33
2023-09-20T15:58:20.236Z,100559.91
2023-09-20T16:00:52.719Z,100561.83
2023-09-20T16:03:28.180Z,100562.51
2023-09-20T16:06:00.970Z,100561.73
2023-09-20T16:08:34.287Z,100559.75
2023-09-20T16:11:06.709Z,100561.76
2023-09-20T16:13:39.253Z,100558.66
2023-09-20T16:16:14.806Z,100556.14
2023-09-20T16:18:48.553Z,100554.69
2023-09-20T16:21:22.842Z,100557.92
2023-09-20T16:23:57.378Z,100561.59
2023-09-20T16:26:29.809Z,100564.19
2023-09-20T16:29:02.498Z,100562.98
2023-09-20T16:31:35.413Z,100563.35
2023-09-20T16:34:10.141Z,100558.46
2023-09-20T16:36:42.533Z,100551.64
2023-09-20T16:39:14.858Z,100550.14
2023-09-20T16:41:47.388Z,100555.58
2023-09-20T16:44:19.943Z,100555.56
2023-09-20T16:46:52.843Z,100553.42
2023-09-20T16:49:25.922Z,100555.52
2023-09-20T16:52:00.614Z,100558.77
2023-09-20T16:54:33.293Z,100556.89
2023-09-20T16:57:05.966Z,100560.85
2023-09-20T16:59:38.609Z,100559.77
2023-09-20T17:02:11.743Z,100557.83
2023-09-20T17:04:44.153Z,100560.92
2023-09-20T17:07:17.142Z,100561.43
2023-09-20T17:09:49.991Z,100563.39
2023-09-20T17:12:22.492Z,100561.52
2023-09-20T17:14:54.993Z,100560.59
2023-09-20T17:17:27.919Z,100559.59
2023-09-20T17:20:02.817Z,100563.91
2023-09-20T17:22:35.301Z,100569.42
2023-09-20T17:25:09.113Z,100578.40
2023-09-20T17:27:43.150Z,100586.22
2023-09-20T17:30:18.635Z,100588.63
2023-09-20T17:32:51.767Z,100591.90
2023-09-20T17:35:24.632Z,100589.86
2023-09-20T17:37:58.431Z,100589.88
2023-09-20T17:40:33.592Z,100590.31
2023-09-20T17:43:06.569Z,100588.73
2023-09-20T17:45:42.175Z,100594.17
2023-09-20T17:48:14.729Z,100593.79
2023-09-20T17:50:49.314Z,100594.05
2023-09-20T17:53:23.934Z,100598.72
2023-09-20T17:56:01.473Z,100598.81
2023-09-20T17:58:36.061Z,100597.64
2023-09-20T18:01:09.439Z,100594.63
2023-09-20T18:03:40.377Z,100594.77
2023-09-20T18:06:14.923Z,100595.48
2023-09-20T18:09:07.957Z,100595.92
2023-09-20T18:12:00.629Z,100590.48
2023-09-20T18:14:33.164Z,100588.67
2023-09-20T18:17:05.512Z,100586.36
2023-09-20T18:19:39.414Z,100587.95
2023-09-20T18:22:14.523Z,100590.63
2023-09-20T18:24:47.442Z,100591.80
2023-09-20T18:27:41.866Z,100598.33
2023-09-20T18:30:19.290Z,100600.41
2023-09-20T18:32:57.648Z,100604.64
2023-09-20T18:35:30.797Z,100606.30
2023-09-20T18:38:03.213Z,100608.37
2023-09-20T18:40:35.758Z,100607.33
2023-09-20T18:43:51.085Z,100609.21
2023-09-20T18:46:29.116Z,100608.81
2023-09-20T18:49:03.123Z,100608.69
2023-09-20T18:52:17.143Z,100606.67
2023-09-20T18:54:51.059Z,100611.75
2023-09-20T18:57:26.991Z,100613.38
2023-09-20T19:00:02.033Z,100617.23
2023-09-20T19:02:36.867Z,100613.92
2023-09-20T19:05:11.131Z,100613.80
2023-09-20T19:07:45.429Z,100611.75
2023-09-20T19:10:19.236Z,100611.25
2023-09-20T19:12:52.942Z,100608.02
2023-09-20T19:15:24.034Z,100611.14
2023-09-20T19:17:56.815Z,100609.88
2023-09-20T19:20:37.868Z,100608.80
2023-09-20T19:23:14.008Z,100606.99
2023-09-20T19:25:47.653Z,100610.89
2023-09-20T19:28:20.719Z,100612.24
2023-09-20T19:30:55.256Z,100617.05
2023-09-20T19:33:47.968Z,100615.03
2023-09-20T19:36:41.749Z,100620.76
2023-09-20T19:39:16.533Z,100619.98
2023-09-20T19:41:48.808Z,100624.08
2023-09-20T19:44:21.205Z,100620.88
2023-09-20T19:46:53.678Z,100616.80
2023-09-20T19:49:27.204Z,100617.63
2023-09-20T19:52:00.299Z,100611.84
2023-09-20T19:54:34.213Z,100608.87
2023-09-20T19:57:07.275Z,100611.16
2023-09-20T19:59:40.135Z,100615.54
2023-09-20T20:02:14.908Z,100616.60
2023-09-20T20:04:47.480Z,100616.06
2023-09-20T20:07:27.788Z,100615.00
2023-09-20T20:10:02.493Z,100615.22
2023-09-20T20:12:35.129Z,100617.48
2023-09-20T20:15:08.994Z,100612.80
2023-09-20T20:17:44.924Z,100608.97
2023-09-20T20:20:21.156Z,100610.65
2023-09-20T20:22:56.386Z,100609.29
2023-09-20T20:25:35.809Z,100609.58
2023-09-20T20:28:13.745Z,100615.05
2023-09-20T20:30:47.180Z,100614.70
2023-09-20T20:33:20.448Z,100614.40
2023-09-20T20:35:53.888Z,100620.11
2023-09-20T20:38:26.246Z,100619.14
2023-09-20T20:40:58.629Z,100615.29
2023-09-20T20:43:31.517Z,100611.39
2023-09-20T20:46:04.336Z,100609.89
2023-09-20T20:48:38.535Z,100607.70
2023-09-20T20:51:17.574Z,100607.39
2023-09-20T20:53:50.193Z,100607.30
2023-09-20T20:56:29.763Z,100600.31
2023-09-20T20:59:02.571Z,100600.13
2023-09-20T21:01:37.602Z,100597.55
2023-09-20T21:04:10.948Z,100601.58
2023-09-20T21:06:45.536Z,100595.89
2023-09-20T21:09:38.089Z,100595.80
2023-09-20T21:12:12.641Z,100594.57
2023-09-20T21:14:46.106Z,100590.86
2023-09-20T21:17:18.479Z,100588.59
2023-09-20T21:19:51.422Z,100585.05
2023-09-20T21:22:26.635Z,100587.04
2023-09-20T21:24:59.446Z,100588.33
2023-09-20T21:27:31.978Z,100589.37
2023-09-20T21:30:06.584Z,100589.41
2023-09-20T21:32:39.095Z,100587.40
2023-09-20T21:35:12.560Z,100583.11
2023-09-20T21:37:45.239Z,100584.77
2023-09-20T21:40:19.477Z,100583.13
2023-09-20T21:42:52.073Z,100582.20
2023-09-20T21:45:25.705Z,100579.59
2023-09-20T21:47:58.510Z,100577.05
2023-09-20T21:50:32.472Z,100576.81
2023-09-20T21:53:05.793Z,100577.91
2023-09-20T21:55:38.284Z,100575.29
2023-09-20T21:58:11.153Z,100576.41
2023-09-20T22:00:43.614Z,100573.02
2023-09-20T22:03:16.124Z,100573.46
2023-09-20T22:06:10.072Z,100571.52
2023-09-20T22:08:43.056Z,100566.81
2023-09-20T22:11:16.263Z,100566.46
2023-09-20T22:13:49.953Z,100566.00
2023-09-20T22:16:22.344Z,100564.91
2023-09-20T22:18:59.411Z,100568.27
2023-09-20T22:21:31.947Z,100563.30
2023-09-20T22:24:06.580Z,100562.23
2023-09-20T22:26:39.324Z,100555.48
2023-09-20T22:29:11.964Z,100559.94
2023-09-20T22:31:44.373Z,100560.46
2023-09-20T22:34:17.829Z,100559.45
2023-09-20T22:36:51.663Z,100562.06
2023-09-20T22:39:23.767Z,100560.46
2023-09-20T22:41:56.162Z,100561.85
2023-09-20T22:44:29.247Z,100562.13
2023-09-20T22:47:01.524Z,100556.61
2023-09-20T22:49:35.470Z,100558.70
2023-09-20T22:52:08.129Z,100555.73
2023-09-20T22:54:40.552Z,100555.66
2023-09-20T22:57:13.586Z,100548.51
2023-09-20T22:59:46.133Z,100549.91
2023-09-20T23:02:21.443Z,100550.02
2023-09-20T23:04:56.360Z,100546.93
2023-09-20T23:07:30.676Z,100544.50
2023-09-20T23:10:06.329Z,100550.64
2023-09-20T23:12:39.194Z,100552.45
2023-09-20T23:15:13.741Z,100555.15
2023-09-20T23:17:50.332Z,100554.57
2023-09-20T23:20:32.412Z,100554.42
2023-09-20T23:23:06.638Z,100552.25
2023-09-20T23:25:40.565Z,100551.25
2023-09-20T23:28:11.692Z,100542.77
2023-09-20T23:30:46.179Z,100540.36
2023-09-20T23:33:22.868Z,100535.90
2023-09-20T23:35:58.073Z,100540.64
2023-09-20T23:38:33.742Z,100542.91
2023-09-20T23:41:15.758Z,100540.71
2023-09-20T23:43:52.134Z,100540.29
2023-09-20T23:46:27.756Z,100540.05
2023-09-20T23:49:06.133Z,100540.00
2023-09-20T23:51:39.071Z,100539.03
2023-09-20T23:54:11.705Z,100538.13
2023-09-20T23:56:44.343Z,100538.66
2023-09-20T23:59:16.803Z,100533.80
